createdAt,value
2022-09-03T00:00:38.085Z,100698.34
2022-09-03T00:03:18.856Z,100698.34
2022-09-03T00:06:02.546Z,100685.47
2022-09-03T00:08:39.594Z,100694.03
2022-09-03T00:11:19.127Z,100691.94
2022-09-03T00:14:28.774Z,100704.56
2022-09-03T00:17:40.204Z,100708.38
2022-09-03T00:20:22.413Z,100715.94
2022-09-03T00:22:57.561Z,100714.94
2022-09-03T00:25:45.266Z,100704.94
2022-09-03T00:28:19.000Z,100708.25
2022-09-03T00:30:54.171Z,100714.81
2022-09-03T00:33:27.082Z,100714.38
2022-09-03T00:36:03.217Z,100717.63
2022-09-03T00:38:33.729Z,100709.81
2022-09-03T00:41:25.602Z,100714.75
2022-09-03T00:44:26.500Z,100716.63
2022-09-03T00:47:16.358Z,100716.28
2022-09-03T00:49:44.129Z,100716.28
2022-09-03T00:52:29.648Z,100718.19
2022-09-03T00:55:27.334Z,100712.09
2022-09-03T00:58:21.085Z,100711.69
2022-09-03T01:00:52.996Z,100714.88
2022-09-03T01:03:40.945Z,100728.38
2022-09-03T01:06:23.542Z,100726.75
2022-09-03T01:09:03.344Z,100723.31
2022-09-03T01:11:59.580Z,100731.13
2022-09-03T01:15:04.575Z,100728.69
2022-09-03T01:17:51.152Z,100734.84
2022-09-03T01:20:24.828Z,100734.97
2022-09-03T01:23:14.517Z,100726.19
2022-09-03T01:25:54.289Z,100727.44
2022-09-03T01:28:33.516Z,100727.53
2022-09-03T01:31:01.428Z,100716.22
2022-09-03T01:33:38.538Z,100722.25
2022-09-03T01:36:25.513Z,100723.16
2022-09-03T01:39:02.034Z,100718.56
2022-09-03T01:42:06.981Z,100714.44
2022-09-03T01:44:39.633Z,100720.19
2022-09-03T01:47:26.494Z,100723.13
2022-09-03T01:50:12.099Z,100722.81
2022-09-03T01:52:56.988Z,100723.31
2022-09-03T01:56:06.274Z,100731.47
2022-09-03T01:58:43.321Z,100728.06
2022-09-03T02:01:21.239Z,100734.09
2022-09-03T02:03:53.851Z,100730.88
2022-09-03T02:06:22.129Z,100731.34
2022-09-03T02:08:49.992Z,100732.03
2022-09-03T02:11:18.007Z,100727.56
2022-09-03T02:13:49.858Z,100727.44
2022-09-03T02:16:22.437Z,100723.25
2022-09-03T02:19:12.215Z,100724.97
2022-09-03T02:22:00.584Z,100730.09
2022-09-03T02:24:29.274Z,100721.38
2022-09-03T02:26:57.471Z,100731.63
2022-09-03T02:29:25.494Z,100719.94
2022-09-03T02:31:54.826Z,100728.31
2022-09-03T02:34:22.793Z,100729.25
2022-09-03T02:36:50.657Z,100730.47
2022-09-03T02:39:19.430Z,100724.00
2022-09-03T02:41:56.152Z,100728.72
2022-09-03T02:44:35.368Z,100718.06
2022-09-03T02:47:08.380Z,100716.38
2022-09-03T02:49:36.752Z,100729.41
2022-09-03T02:52:09.656Z,100734.56
2022-09-03T02:54:39.923Z,100728.13
2022-09-03T02:57:10.472Z,100739.09
2022-09-03T02:59:39.892Z,100738.91
2022-09-03T03:02:07.935Z,100739.31
2022-09-03T03:04:35.817Z,100743.22
2022-09-03T03:07:03.907Z,100748.09
2022-09-03T03:09:31.787Z,100746.94
2022-09-03T03:11:59.803Z,100746.66
2022-09-03T03:14:27.635Z,100751.63
2022-09-03T03:16:55.715Z,100748.28
2022-09-03T03:19:23.704Z,100748.47
2022-09-03T03:21:54.175Z,100745.84
2022-09-03T03:24:22.092Z,100756.81
2022-09-03T03:26:50.851Z,100758.88
2022-09-03T03:29:18.928Z,100746.31
2022-09-03T03:31:46.829Z,100761.16
2022-09-03T03:34:14.755Z,100759.44
2022-09-03T03:36:42.772Z,100759.63
2022-09-03T03:39:11.279Z,100758.75
2022-09-03T03:41:39.594Z,100761.97
2022-09-03T03:44:08.830Z,100750.72
2022-09-03T03:46:42.068Z,100746.75
2022-09-03T03:49:11.294Z,100749.53
2022-09-03T03:51:40.934Z,100746.13
2022-09-03T03:54:08.883Z,100736.59
2022-09-03T03:56:37.008Z,100734.06
2022-09-03T03:59:05.012Z,100723.63
2022-09-03T04:01:33.250Z,100729.28
2022-09-03T04:04:01.304Z,100735.88
2022-09-03T04:06:29.459Z,100731.00
2022-09-03T04:08:57.605Z,100731.38
2022-09-03T04:11:26.579Z,100724.41
2022-09-03T04:13:54.900Z,100737.25
2022-09-03T04:16:25.619Z,100729.06
2022-09-03T04:18:55.406Z,100722.06
2022-09-03T04:21:26.603Z,100717.00
2022-09-03T04:23:57.633Z,100717.34
2022-09-03T04:26:33.062Z,100722.69
2022-09-03T04:29:04.613Z,100717.84
2022-09-03T04:31:33.447Z,100712.25
2022-09-03T04:34:01.434Z,100708.75
2022-09-03T04:36:31.376Z,100708.13
2022-09-03T04:39:01.806Z,100704.50
2022-09-03T04:41:31.722Z,100715.41
2022-09-03T04:44:00.445Z,100710.66
2022-09-03T04:46:34.157Z,100719.81
2022-09-03T04:49:02.874Z,100728.81
2022-09-03T04:51:32.190Z,100727.69
2022-09-03T04:54:02.770Z,100723.44
2022-09-03T04:56:33.389Z,100736.25
2022-09-03T04:59:04.468Z,100730.09
2022-09-03T05:01:36.999Z,100716.97
2022-09-03T05:04:05.898Z,100718.13
2022-09-03T05:06:35.086Z,100717.25
2022-09-03T05:09:04.572Z,100717.16
2022-09-03T05:11:32.843Z,100714.00
2022-09-03T05:14:01.375Z,100718.19
2022-09-03T05:16:31.228Z,100719.16
2022-09-03T05:19:01.467Z,100725.94
2022-09-03T05:21:30.262Z,100737.69
2022-09-03T05:24:00.465Z,100731.44
2022-09-03T05:26:30.866Z,100732.41
2022-09-03T05:29:01.336Z,100736.75
2022-09-03T05:31:33.584Z,100740.59
2022-09-03T05:34:04.877Z,100741.81
2022-09-03T05:36:35.770Z,100750.03
2022-09-03T05:39:05.791Z,100743.28
2022-09-03T05:41:34.631Z,100746.81
2022-09-03T05:44:04.323Z,100731.03
2022-09-03T05:46:33.936Z,100736.25
2022-09-03T05:49:04.580Z,100731.97
2022-09-03T05:51:35.194Z,100718.44
2022-09-03T05:54:04.172Z,100721.34
2022-09-03T05:56:33.435Z,100720.66
2022-09-03T05:59:06.053Z,100716.38
2022-09-03T06:01:36.001Z,100705.38
2022-09-03T06:04:04.094Z,100708.09
2022-09-03T06:06:34.948Z,100701.28
2022-09-03T06:09:06.705Z,100693.50
2022-09-03T06:11:37.464Z,100695.34
2022-09-03T06:14:08.858Z,100694.41
2022-09-03T06:16:41.119Z,100694.84
2022-09-03T06:19:10.464Z,100696.94
2022-09-03T06:21:43.150Z,100688.84
2022-09-03T06:24:13.308Z,100702.63
2022-09-03T06:26:43.413Z,100702.22
2022-09-03T06:29:12.901Z,100700.53
2022-09-03T06:31:44.130Z,100704.56
2022-09-03T06:34:12.674Z,100708.75
2022-09-03T06:36:41.699Z,100714.03
2022-09-03T06:39:09.796Z,100718.38
2022-09-03T06:41:38.307Z,100707.91
2022-09-03T06:44:12.169Z,100717.56
2022-09-03T06:46:44.437Z,100716.19
2022-09-03T06:49:13.760Z,100719.50
2022-09-03T06:51:43.721Z,100729.38
2022-09-03T06:54:12.955Z,100721.19
2022-09-03T06:56:41.824Z,100717.56
2022-09-03T06:59:13.080Z,100722.13
2022-09-03T07:01:44.587Z,100721.09
2022-09-03T07:04:19.233Z,100728.63
2022-09-03T07:06:47.725Z,100727.19
2022-09-03T07:09:18.572Z,100733.31
2022-09-03T07:11:48.661Z,100743.47
2022-09-03T07:14:19.295Z,100733.31
2022-09-03T07:16:49.740Z,100736.13
2022-09-03T07:19:18.936Z,100726.63
2022-09-03T07:21:50.575Z,100750.81
2022-09-03T07:24:47.131Z,100731.00
2022-09-03T07:27:18.296Z,100734.81
2022-09-03T07:29:46.714Z,100727.75
2022-09-03T07:32:16.414Z,100729.09
2022-09-03T07:34:44.621Z,100720.78
2022-09-03T07:37:12.938Z,100731.22
2022-09-03T07:39:41.707Z,100732.56
2022-09-03T07:42:11.162Z,100730.72
2022-09-03T07:44:39.567Z,100737.19
2022-09-03T07:47:07.849Z,100738.75
2022-09-03T07:49:36.571Z,100743.59
2022-09-03T07:52:04.796Z,100746.69
2022-09-03T07:54:32.741Z,100746.88
2022-09-03T07:57:00.790Z,100746.13
2022-09-03T07:59:29.013Z,100754.44
2022-09-03T08:01:57.448Z,100751.44
2022-09-03T08:04:25.435Z,100755.97
2022-09-03T08:06:56.022Z,100763.31
2022-09-03T08:09:24.248Z,100773.19
2022-09-03T08:11:52.227Z,100775.94
2022-09-03T08:14:20.420Z,100771.50
2022-09-03T08:16:48.425Z,100780.03
2022-09-03T08:19:18.676Z,100780.75
2022-09-03T08:21:47.392Z,100783.72
2022-09-03T08:24:17.334Z,100781.91
2022-09-03T08:26:51.350Z,100773.63
2022-09-03T08:29:21.275Z,100786.06
2022-09-03T08:31:49.504Z,100787.41
2022-09-03T08:34:18.247Z,100802.94
2022-09-03T08:36:47.490Z,100813.25
2022-09-03T08:39:17.408Z,100807.78
2022-09-03T08:41:51.803Z,100801.28
2022-09-03T08:44:29.081Z,100810.03
2022-09-03T08:47:13.905Z,100804.75
2022-09-03T08:49:56.950Z,100798.47
2022-09-03T08:52:37.858Z,100796.47
2022-09-03T08:55:29.967Z,100796.31
2022-09-03T08:58:11.186Z,100811.06
2022-09-03T09:01:15.096Z,100807.38
2022-09-03T09:03:58.450Z,100806.31
2022-09-03T09:06:45.335Z,100809.00
2022-09-03T09:09:42.121Z,100814.25
2022-09-03T09:12:41.408Z,100814.16
2022-09-03T09:15:31.127Z,100813.19
2022-09-03T09:18:16.214Z,100811.16
2022-09-03T09:20:58.212Z,100806.31
2022-09-03T09:23:44.069Z,100802.34
2022-09-03T09:26:18.605Z,100811.22
2022-09-03T09:28:54.460Z,100816.81
2022-09-03T09:31:22.620Z,100823.34
2022-09-03T09:33:52.688Z,100823.75
2022-09-03T09:36:23.118Z,100812.09
2022-09-03T09:38:51.503Z,100820.19
2022-09-03T09:41:28.928Z,100815.19
2022-09-03T09:44:02.817Z,100801.63
2022-09-03T09:46:41.594Z,100806.47
2022-09-03T09:49:32.706Z,100809.34
2022-09-03T09:52:03.550Z,100813.34
2022-09-03T09:54:31.735Z,100809.00
2022-09-03T09:57:05.337Z,100810.56
2022-09-03T09:59:38.507Z,100820.72
2022-09-03T10:02:21.971Z,100807.91
2022-09-03T10:04:50.963Z,100811.91
2022-09-03T10:07:33.278Z,100808.28
2022-09-03T10:10:21.706Z,100815.09
2022-09-03T10:13:02.042Z,100826.41
2022-09-03T10:15:51.207Z,100814.75
2022-09-03T10:18:29.193Z,100812.78
2022-09-03T10:21:08.276Z,100821.97
2022-09-03T10:24:15.596Z,100818.00
2022-09-03T10:26:46.433Z,100821.63
2022-09-03T10:29:21.654Z,100809.97
2022-09-03T10:32:13.232Z,100815.16
2022-09-03T10:35:04.042Z,100821.53
2022-09-03T10:37:50.647Z,100811.13
2022-09-03T10:40:33.518Z,100805.09
2022-09-03T10:43:07.360Z,100813.16
2022-09-03T10:45:59.945Z,100818.81
2022-09-03T10:48:34.921Z,100819.59
2022-09-03T10:51:27.466Z,100812.97
2022-09-03T10:54:05.608Z,100811.09
2022-09-03T10:56:49.752Z,100804.66
2022-09-03T10:59:20.740Z,100819.63
2022-09-03T11:02:00.927Z,100811.91
2022-09-03T11:04:46.125Z,100805.94
2022-09-03T11:07:16.225Z,100801.91
2022-09-03T11:09:47.448Z,100800.69
2022-09-03T11:12:24.530Z,100805.94
2022-09-03T11:15:05.731Z,100800.31
2022-09-03T11:17:43.530Z,100799.41
2022-09-03T11:20:21.618Z,100799.06
2022-09-03T11:22:54.014Z,100806.59
2022-09-03T11:25:26.866Z,100789.97
2022-09-03T11:28:19.608Z,100791.19
2022-09-03T11:31:14.996Z,100796.91
2022-09-03T11:34:01.612Z,100787.41
2022-09-03T11:36:39.180Z,100782.81
2022-09-03T11:39:44.720Z,100780.09
2022-09-03T11:42:36.271Z,100793.50
2022-09-03T11:45:39.292Z,100784.16
2022-09-03T11:48:20.945Z,100771.50
2022-09-03T11:50:55.701Z,100773.03
2022-09-03T11:53:35.056Z,100785.84
2022-09-03T11:56:17.685Z,100778.44
2022-09-03T11:58:47.861Z,100774.75
2022-09-03T12:01:20.570Z,100774.47
2022-09-03T12:03:55.218Z,100769.13
2022-09-03T12:06:28.558Z,100767.50
2022-09-03T12:09:10.332Z,100764.44
2022-09-03T12:11:59.607Z,100759.84
2022-09-03T12:14:49.788Z,100754.16
2022-09-03T12:17:47.552Z,100749.84
2022-09-03T12:20:17.482Z,100747.84
2022-09-03T12:22:46.230Z,100747.56
2022-09-03T12:25:16.169Z,100744.88
2022-09-03T12:27:46.939Z,100750.75
2022-09-03T12:30:31.263Z,100750.13
2022-09-03T12:33:11.264Z,100746.16
2022-09-03T12:38:30.141Z,100747.66
2022-09-03T12:43:53.151Z,100748.13
2022-09-03T12:46:33.209Z,100744.09
2022-09-03T12:49:30.971Z,100754.22
2022-09-03T12:52:07.736Z,100743.75
2022-09-03T12:54:59.342Z,100745.94
2022-09-03T12:57:38.660Z,100730.56
2022-09-03T13:00:12.810Z,100727.47
2022-09-03T13:02:52.226Z,100734.69
2022-09-03T13:05:34.105Z,100733.25
2022-09-03T13:08:06.513Z,100734.94
2022-09-03T13:10:43.119Z,100735.88
2022-09-03T13:13:20.423Z,100725.47
2022-09-03T13:16:15.835Z,100721.50
2022-09-03T13:19:22.707Z,100716.84
2022-09-03T13:22:12.382Z,100726.06
2022-09-03T13:25:03.173Z,100717.47
2022-09-03T13:28:08.351Z,100725.19
2022-09-03T13:31:11.039Z,100717.47
2022-09-03T13:33:44.946Z,100713.75
2022-09-03T13:36:27.132Z,100707.59
2022-09-03T13:39:06.394Z,100700.75
2022-09-03T13:41:54.647Z,100700.72
2022-09-03T13:44:41.797Z,100702.72
2022-09-03T13:47:31.518Z,100699.53
2022-09-03T13:50:23.045Z,100689.44
2022-09-03T13:53:06.852Z,100686.31
2022-09-03T13:55:50.839Z,100686.63
2022-09-03T13:58:22.170Z,100693.66
2022-09-03T14:00:59.760Z,100691.00
2022-09-03T14:03:58.992Z,100687.66
2022-09-03T14:06:41.638Z,100690.44
2022-09-03T14:09:19.063Z,100688.84
2022-09-03T14:12:16.305Z,100692.00
2022-09-03T14:15:09.341Z,100685.41
2022-09-03T14:17:52.936Z,100685.72
2022-09-03T14:20:41.724Z,100682.72
2022-09-03T14:23:29.611Z,100680.75
2022-09-03T14:26:04.211Z,100671.59
2022-09-03T14:28:36.983Z,100674.94
2022-09-03T14:31:41.849Z,100683.34
2022-09-03T14:34:26.047Z,100671.47
2022-09-03T14:37:30.389Z,100664.94
2022-09-03T14:40:24.662Z,100666.25
2022-09-03T14:43:30.274Z,100670.69
2022-09-03T14:46:14.479Z,100670.50
2022-09-03T14:49:25.973Z,100669.78
2022-09-03T14:52:03.854Z,100672.09
2022-09-03T14:54:47.356Z,100668.72
2022-09-03T14:57:36.798Z,100673.66
2022-09-03T15:00:38.364Z,100668.13
2022-09-03T15:03:39.614Z,100675.06
2022-09-03T15:06:37.828Z,100671.44
2022-09-03T15:09:12.468Z,100666.13
2022-09-03T15:11:56.394Z,100667.38
2022-09-03T15:14:42.630Z,100672.63
2022-09-03T15:17:38.890Z,100668.72
2022-09-03T15:20:16.711Z,100658.22
2022-09-03T15:23:09.338Z,100652.25
2022-09-03T15:25:37.504Z,100661.00
2022-09-03T15:28:20.739Z,100655.34
2022-09-03T15:30:59.370Z,100654.09
2022-09-03T15:33:40.692Z,100668.97
2022-09-03T15:36:09.123Z,100664.16
2022-09-03T15:38:44.767Z,100674.31
2022-09-03T15:41:20.312Z,100669.16
2022-09-03T15:43:51.475Z,100662.69
2022-09-03T15:46:46.896Z,100664.69
2022-09-03T15:49:27.192Z,100667.41
2022-09-03T15:52:20.551Z,100674.72
2022-09-03T15:55:13.118Z,100668.66
2022-09-03T15:58:10.465Z,100672.69
2022-09-03T16:01:00.791Z,100675.91
2022-09-03T16:04:01.416Z,100673.13
2022-09-03T16:06:38.685Z,100682.41
2022-09-03T16:09:28.011Z,100677.97
2022-09-03T16:12:25.154Z,100683.22
2022-09-03T16:15:03.309Z,100678.75
2022-09-03T16:17:57.567Z,100686.03
2022-09-03T16:20:34.026Z,100686.44
2022-09-03T16:23:05.959Z,100687.25
2022-09-03T16:25:50.861Z,100676.00
2022-09-03T16:28:29.169Z,100674.75
2022-09-03T16:30:57.751Z,100668.72
2022-09-03T16:34:08.833Z,100679.59
2022-09-03T16:36:48.041Z,100671.94
2022-09-03T16:39:21.194Z,100669.09
2022-09-03T16:42:12.311Z,100680.81
2022-09-03T16:44:51.640Z,100678.81
2022-09-03T16:47:31.602Z,100688.44
2022-09-03T16:50:21.794Z,100686.44
2022-09-03T16:53:10.204Z,100690.06
2022-09-03T16:55:54.486Z,100686.81
2022-09-03T16:58:34.854Z,100681.19
2022-09-03T17:01:22.161Z,100682.81
2022-09-03T17:03:50.350Z,100684.03
2022-09-03T17:06:22.213Z,100682.00
2022-09-03T17:09:01.425Z,100687.63
2022-09-03T17:11:58.337Z,100682.81
2022-09-03T17:14:49.422Z,100682.81
2022-09-03T17:17:42.091Z,100681.63
2022-09-03T17:20:13.470Z,100686.84
2022-09-03T17:23:01.741Z,100683.22
2022-09-03T17:25:29.648Z,100679.59
2022-09-03T17:28:25.202Z,100678.41
2022-09-03T17:31:10.361Z,100690.06
2022-09-03T17:33:55.792Z,100690.44
2022-09-03T17:36:31.564Z,100690.47
2022-09-03T17:39:09.102Z,100698.91
2022-09-03T17:41:53.378Z,100693.25
2022-09-03T17:44:40.088Z,100695.69
2022-09-03T17:47:30.709Z,100698.06
2022-09-03T17:50:18.724Z,100699.69
2022-09-03T17:53:09.604Z,100703.25
2022-09-03T17:55:50.738Z,100708.13
2022-09-03T17:58:34.524Z,100702.00
2022-09-03T18:01:16.358Z,100712.47
2022-09-03T18:03:53.547Z,100715.63
2022-09-03T18:06:49.368Z,100728.50
2022-09-03T18:09:17.774Z,100739.72
2022-09-03T18:11:57.250Z,100725.28
2022-09-03T18:14:31.886Z,100733.28
2022-09-03T18:16:59.739Z,100750.22
2022-09-03T18:20:29.198Z,100757.41
2022-09-03T18:23:34.258Z,100757.84
2022-09-03T18:26:32.195Z,100760.22
2022-09-03T18:29:25.975Z,100767.84
2022-09-03T18:32:12.325Z,100771.38
2022-09-03T18:35:00.485Z,100764.47
2022-09-03T18:37:46.755Z,100774.97
2022-09-03T18:40:41.258Z,100770.84
2022-09-03T18:43:40.985Z,100789.34
2022-09-03T18:48:02.255Z,100789.13
2022-09-03T18:50:05.938Z,100800.59
2022-09-03T18:53:15.638Z,100802.31
2022-09-03T18:56:17.357Z,100795.38
2022-09-03T18:59:07.001Z,100801.94
2022-09-03T19:01:57.730Z,100798.72
2022-09-03T19:05:28.339Z,100807.31
2022-09-03T19:08:35.914Z,100807.78
2022-09-03T19:11:34.398Z,100806.13
2022-09-03T19:14:30.358Z,100799.66
2022-09-03T19:17:45.014Z,100807.34
2022-09-03T19:20:47.744Z,100816.50
2022-09-03T19:23:34.505Z,100822.66
2022-09-03T19:26:42.312Z,100819.16
2022-09-03T19:29:53.648Z,100817.13
2022-09-03T19:32:53.739Z,100824.34
2022-09-03T19:35:55.705Z,100820.22
2022-09-03T19:39:09.412Z,100821.50
2022-09-03T19:42:10.728Z,100819.28
2022-09-03T19:45:20.549Z,100819.63
2022-09-03T19:48:28.529Z,100826.66
2022-09-03T19:51:46.437Z,100823.09
2022-09-03T19:54:42.021Z,100825.31
2022-09-03T19:57:34.084Z,100818.88
2022-09-03T20:00:33.297Z,100819.31
2022-09-03T20:03:22.727Z,100819.56
2022-09-03T20:06:11.512Z,100816.75
2022-09-03T20:08:58.074Z,100821.91
2022-09-03T20:11:30.621Z,100834.03
2022-09-03T20:14:14.981Z,100841.78
2022-09-03T20:17:08.952Z,100835.88
2022-09-03T20:19:42.927Z,100841.19
2022-09-03T20:22:16.451Z,100847.50
2022-09-03T20:24:59.141Z,100845.97
2022-09-03T20:27:51.767Z,100850.41
2022-09-03T20:30:22.315Z,100847.31
2022-09-03T20:33:11.475Z,100857.34
2022-09-03T20:36:00.547Z,100860.03
2022-09-03T20:39:29.370Z,100857.78
2022-09-03T20:42:33.549Z,100871.25
2022-09-03T20:45:19.949Z,100866.75
2022-09-03T20:48:23.766Z,100872.84
2022-09-03T20:51:03.397Z,100871.13
2022-09-03T20:54:09.652Z,100867.41
2022-09-03T20:57:02.889Z,100866.69
2022-09-03T20:59:40.496Z,100879.72
2022-09-03T21:02:34.573Z,100876.34
2022-09-03T21:05:40.701Z,100889.53
2022-09-03T21:08:43.646Z,100888.72
2022-09-03T21:11:19.342Z,100885.25
2022-09-03T21:13:47.302Z,100882.19
2022-09-03T21:16:28.982Z,100890.09
2022-09-03T21:18:56.844Z,100882.72
2022-09-03T21:21:49.803Z,100894.19
2022-09-03T21:24:24.537Z,100894.44
2022-09-03T21:27:13.371Z,100889.97
2022-09-03T21:29:47.352Z,100905.34
2022-09-03T21:32:20.370Z,100908.09
2022-09-03T21:35:05.430Z,100907.63
2022-09-03T21:37:41.162Z,100912.03
2022-09-03T21:40:13.572Z,100902.84
2022-09-03T21:43:18.671Z,100909.47
2022-09-03T21:46:21.881Z,100909.41
2022-09-03T21:48:53.227Z,100905.66
2022-09-03T21:51:57.267Z,100911.13
2022-09-03T21:54:39.261Z,100912.63
2022-09-03T21:57:14.354Z,100913.94
2022-09-03T21:59:48.210Z,100904.28
2022-09-03T22:02:22.008Z,100898.63
2022-09-03T22:04:50.624Z,100896.38
2022-09-03T22:07:33.356Z,100903.41
2022-09-03T22:10:27.932Z,100901.66
2022-09-03T22:13:35.965Z,100902.66
2022-09-03T22:16:32.903Z,100894.69
2022-09-03T22:19:01.049Z,100901.69
2022-09-03T22:21:59.317Z,100906.19
2022-09-03T22:24:48.264Z,100905.56
2022-09-03T22:27:47.062Z,100903.53
2022-09-03T22:30:21.534Z,100905.97
2022-09-03T22:32:54.028Z,100905.22
2022-09-03T22:35:37.035Z,100909.00
2022-09-03T22:38:28.866Z,100912.97
2022-09-03T22:41:23.252Z,100904.41
2022-09-03T22:44:01.278Z,100892.63
2022-09-03T22:46:49.695Z,100898.97
2022-09-03T22:49:31.895Z,100890.03
2022-09-03T22:52:11.785Z,100891.44
2022-09-03T22:54:52.862Z,100885.19
2022-09-03T22:57:24.555Z,100887.25
2022-09-03T22:59:55.812Z,100885.25
2022-09-03T23:02:28.384Z,100890.28
2022-09-03T23:04:59.182Z,100882.97
2022-09-03T23:07:46.303Z,100887.09
2022-09-03T23:10:25.950Z,100888.34
2022-09-03T23:13:33.128Z,100894.63
2022-09-03T23:16:28.465Z,100900.91
2022-09-03T23:19:01.742Z,100896.91
2022-09-03T23:21:41.131Z,100893.38
2022-09-03T23:24:17.607Z,100902.88
2022-09-03T23:26:52.605Z,100904.72
2022-09-03T23:29:34.574Z,100900.44
2022-09-03T23:32:06.475Z,100902.38
2022-09-03T23:34:34.365Z,100903.25
2022-09-03T23:37:35.536Z,100905.00
2022-09-03T23:40:18.249Z,100900.44
2022-09-03T23:43:02.884Z,100902.06
2022-09-03T23:45:39.695Z,100899.19
2022-09-03T23:48:25.026Z,100902.13
2022-09-03T23:51:31.328Z,100903.75
2022-09-03T23:54:20.228Z,100901.91
2022-09-03T23:57:05.906Z,100892.56
2022-09-03T23:59:45.574Z,100900.44
